sensor_id;sensor_type;location;lat;lon;timestamp;temperature;humidity
42663;DHT22;44330;51.360;6.686;2023-09-19T00:00:36;16.40;38.80
42663;DHT22;44330;51.360;6.686;2023-09-19T00:03:02;16.40;40.90
42663;DHT22;44330;51.360;6.686;2023-09-19T00:05:28;16.30;43.60
42663;DHT22;44330;51.360;6.686;2023-09-19T00:07:54;16.20;45.70
42663;DHT22;44330;51.360;6.686;2023-09-19T00:10:21;16.30;48.70
42663;DHT22;44330;51.360;6.686;2023-09-19T00:12:47;16.20;54.80
42663;DHT22;44330;51.360;6.686;2023-09-19T00:15:13;16.10;52.70
42663;DHT22;44330;51.360;6.686;2023-09-19T00:17:38;16.00;52.80
42663;DHT22;44330;51.360;6.686;2023-09-19T00:20:06;16.00;54.00
42663;DHT22;44330;51.360;6.686;2023-09-19T00:22:41;16.00;55.40
42663;DHT22;44330;51.360;6.686;2023-09-19T00:25:09;16.00;53.70
42663;DHT22;44330;51.360;6.686;2023-09-19T00:27:35;16.00;55.20
42663;DHT22;44330;51.360;6.686;2023-09-19T00:30:01;16.00;55.00
42663;DHT22;44330;51.360;6.686;2023-09-19T00:32:26;15.90;53.10
42663;DHT22;44330;51.360;6.686;2023-09-19T00:34:57;16.00;52.90
42663;DHT22;44330;51.360;6.686;2023-09-19T00:37:23;16.00;52.10
42663;DHT22;44330;51.360;6.686;2023-09-19T00:39:48;15.90;55.30
42663;DHT22;44330;51.360;6.686;2023-09-19T00:42:18;15.90;54.70
42663;DHT22;44330;51.360;6.686;2023-09-19T00:44:44;15.80;54.30
42663;DHT22;44330;51.360;6.686;2023-09-19T00:47:10;15.90;52.40
42663;DHT22;44330;51.360;6.686;2023-09-19T00:49:40;15.80;52.70
42663;DHT22;44330;51.360;6.686;2023-09-19T00:52:07;15.90;52.20
42663;DHT22;44330;51.360;6.686;2023-09-19T00:54:35;15.80;53.30
42663;DHT22;44330;51.360;6.686;2023-09-19T00:57:01;15.80;51.70
42663;DHT22;44330;51.360;6.686;2023-09-19T00:59:27;15.70;53.30
42663;DHT22;44330;51.360;6.686;2023-09-19T01:01:53;15.70;55.00
42663;DHT22;44330;51.360;6.686;2023-09-19T01:04:19;15.80;55.30
42663;DHT22;44330;51.360;6.686;2023-09-19T01:06:45;15.70;54.40
42663;DHT22;44330;51.360;6.686;2023-09-19T01:09:11;15.70;52.50
42663;DHT22;44330;51.360;6.686;2023-09-19T01:11:43;15.70;51.60
42663;DHT22;44330;51.360;6.686;2023-09-19T01:14:20;15.70;52.80
42663;DHT22;44330;51.360;6.686;2023-09-19T01:17:00;15.70;53.10
42663;DHT22;44330;51.360;6.686;2023-09-19T01:30:14;15.70;50.30
42663;DHT22;44330;51.360;6.686;2023-09-19T01:32:42;15.60;51.50
42663;DHT22;44330;51.360;6.686;2023-09-19T01:35:08;15.60;51.00
42663;DHT22;44330;51.360;6.686;2023-09-19T01:37:37;15.50;50.50
42663;DHT22;44330;51.360;6.686;2023-09-19T01:40:04;15.50;49.30
42663;DHT22;44330;51.360;6.686;2023-09-19T01:42:45;15.60;47.30
42663;DHT22;44330;51.360;6.686;2023-09-19T01:45:12;15.50;46.80
42663;DHT22;44330;51.360;6.686;2023-09-19T01:47:41;15.50;46.70
42663;DHT22;44330;51.360;6.686;2023-09-19T01:50:29;15.60;47.60
42663;DHT22;44330;51.360;6.686;2023-09-19T01:53:02;15.50;47.10
42663;DHT22;44330;51.360;6.686;2023-09-19T01:55:29;15.50;45.90
42663;DHT22;44330;51.360;6.686;2023-09-19T01:58:01;15.50;44.60
42663;DHT22;44330;51.360;6.686;2023-09-19T02:00:29;15.50;46.70
42663;DHT22;44330;51.360;6.686;2023-09-19T02:02:56;15.50;49.60
42663;DHT22;44330;51.360;6.686;2023-09-19T02:05:24;15.40;51.10
42663;DHT22;44330;51.360;6.686;2023-09-19T02:07:49;15.40;51.10
42663;DHT22;44330;51.360;6.686;2023-09-19T02:10:15;15.50;49.30
42663;DHT22;44330;51.360;6.686;2023-09-19T02:12:42;15.40;51.80
42663;DHT22;44330;51.360;6.686;2023-09-19T02:15:07;15.40;51.30
42663;DHT22;44330;51.360;6.686;2023-09-19T02:17:33;15.40;52.80
42663;DHT22;44330;51.360;6.686;2023-09-19T02:19:58;15.50;51.80
42663;DHT22;44330;51.360;6.686;2023-09-19T02:22:26;15.40;49.60
42663;DHT22;44330;51.360;6.686;2023-09-19T02:24:52;15.40;49.90
42663;DHT22;44330;51.360;6.686;2023-09-19T02:27:19;15.30;46.00
42663;DHT22;44330;51.360;6.686;2023-09-19T02:29:44;15.40;48.00
42663;DHT22;44330;51.360;6.686;2023-09-19T02:32:10;15.40;48.40
42663;DHT22;44330;51.360;6.686;2023-09-19T02:34:36;15.30;47.60
42663;DHT22;44330;51.360;6.686;2023-09-19T02:37:05;15.40;42.80
42663;DHT22;44330;51.360;6.686;2023-09-19T02:39:30;15.30;42.30
42663;DHT22;44330;51.360;6.686;2023-09-19T02:41:56;15.40;38.90
42663;DHT22;44330;51.360;6.686;2023-09-19T02:44:21;15.40;40.40
42663;DHT22;44330;51.360;6.686;2023-09-19T02:46:49;15.30;36.60
42663;DHT22;44330;51.360;6.686;2023-09-19T02:49:14;15.30;37.50
42663;DHT22;44330;51.360;6.686;2023-09-19T02:51:40;15.30;39.30
42663;DHT22;44330;51.360;6.686;2023-09-19T02:54:05;15.20;32.90
42663;DHT22;44330;51.360;6.686;2023-09-19T02:56:31;15.30;32.50
42663;DHT22;44330;51.360;6.686;2023-09-19T02:58:57;15.30;28.70
42663;DHT22;44330;51.360;6.686;2023-09-19T03:01:23;15.20;33.40
42663;DHT22;44330;51.360;6.686;2023-09-19T03:03:49;15.20;32.40
42663;DHT22;44330;51.360;6.686;2023-09-19T03:06:15;15.20;34.30
42663;DHT22;44330;51.360;6.686;2023-09-19T03:08:41;15.20;35.90
42663;DHT22;44330;51.360;6.686;2023-09-19T03:11:07;15.20;33.50
42663;DHT22;44330;51.360;6.686;2023-09-19T03:13:35;15.20;35.90
42663;DHT22;44330;51.360;6.686;2023-09-19T03:16:03;15.10;33.40
42663;DHT22;44330;51.360;6.686;2023-09-19T03:18:31;15.20;33.90
42663;DHT22;44330;51.360;6.686;2023-09-19T03:20:57;15.20;33.80
42663;DHT22;44330;51.360;6.686;2023-09-19T03:23:25;15.10;35.00
42663;DHT22;44330;51.360;6.686;2023-09-19T03:25:51;15.20;34.30
42663;DHT22;44330;51.360;6.686;2023-09-19T03:28:17;15.10;34.80
42663;DHT22;44330;51.360;6.686;2023-09-19T03:30:43;15.10;37.00
42663;DHT22;44330;51.360;6.686;2023-09-19T03:33:09;15.00;39.80
42663;DHT22;44330;51.360;6.686;2023-09-19T03:35:37;15.00;38.60
42663;DHT22;44330;51.360;6.686;2023-09-19T03:38:03;15.00;40.70
42663;DHT22;44330;51.360;6.686;2023-09-19T03:40:29;15.00;39.80
42663;DHT22;44330;51.360;6.686;2023-09-19T03:42:55;15.00;39.10
42663;DHT22;44330;51.360;6.686;2023-09-19T03:45:20;14.90;40.30
42663;DHT22;44330;51.360;6.686;2023-09-19T03:47:46;14.90;41.50
42663;DHT22;44330;51.360;6.686;2023-09-19T03:50:15;15.00;39.60
42663;DHT22;44330;51.360;6.686;2023-09-19T03:52:43;15.00;38.90
42663;DHT22;44330;51.360;6.686;2023-09-19T03:55:08;14.90;39.90
42663;DHT22;44330;51.360;6.686;2023-09-19T03:57:35;14.90;44.00
42663;DHT22;44330;51.360;6.686;2023-09-19T04:00:01;14.90;42.30
42663;DHT22;44330;51.360;6.686;2023-09-19T04:02:26;14.80;44.00
42663;DHT22;44330;51.360;6.686;2023-09-19T04:04:58;14.80;40.90
42663;DHT22;44330;51.360;6.686;2023-09-19T04:07:23;14.90;41.60
42663;DHT22;44330;51.360;6.686;2023-09-19T04:09:51;14.70;43.70
42663;DHT22;44330;51.360;6.686;2023-09-19T04:12:18;14.80;42.40
42663;DHT22;44330;51.360;6.686;2023-09-19T04:14:44;14.80;46.00
42663;DHT22;44330;51.360;6.686;2023-09-19T04:17:09;14.80;49.20
42663;DHT22;44330;51.360;6.686;2023-09-19T04:19:36;14.70;51.30
42663;DHT22;44330;51.360;6.686;2023-09-19T04:22:01;14.80;45.90
42663;DHT22;44330;51.360;6.686;2023-09-19T04:24:28;14.80;47.40
42663;DHT22;44330;51.360;6.686;2023-09-19T04:26:53;14.80;50.20
42663;DHT22;44330;51.360;6.686;2023-09-19T04:29:19;14.80;52.80
42663;DHT22;44330;51.360;6.686;2023-09-19T04:31:45;14.70;52.00
42663;DHT22;44330;51.360;6.686;2023-09-19T04:34:11;14.70;54.00
42663;DHT22;44330;51.360;6.686;2023-09-19T04:36:41;14.70;54.00
42663;DHT22;44330;51.360;6.686;2023-09-19T04:39:07;14.70;53.70
42663;DHT22;44330;51.360;6.686;2023-09-19T04:41:33;14.70;55.40
42663;DHT22;44330;51.360;6.686;2023-09-19T04:43:59;14.70;55.20
42663;DHT22;44330;51.360;6.686;2023-09-19T04:46:24;14.70;55.70
42663;DHT22;44330;51.360;6.686;2023-09-19T04:48:50;14.60;56.50
42663;DHT22;44330;51.360;6.686;2023-09-19T04:51:15;14.60;57.30
42663;DHT22;44330;51.360;6.686;2023-09-19T04:53:41;14.60;59.90
42663;DHT22;44330;51.360;6.686;2023-09-19T04:56:07;14.60;57.70
42663;DHT22;44330;51.360;6.686;2023-09-19T04:58:33;14.60;59.10
42663;DHT22;44330;51.360;6.686;2023-09-19T05:00:59;14.60;59.60
42663;DHT22;44330;51.360;6.686;2023-09-19T05:03:24;14.60;60.60
42663;DHT22;44330;51.360;6.686;2023-09-19T05:05:50;14.60;57.50
42663;DHT22;44330;51.360;6.686;2023-09-19T05:08:15;14.70;54.10
42663;DHT22;44330;51.360;6.686;2023-09-19T05:10:41;14.70;52.70
42663;DHT22;44330;51.360;6.686;2023-09-19T05:13:06;14.80;51.70
42663;DHT22;44330;51.360;6.686;2023-09-19T05:15:35;14.80;49.90
42663;DHT22;44330;51.360;6.686;2023-09-19T05:18:01;14.80;49.10
42663;DHT22;44330;51.360;6.686;2023-09-19T05:20:26;14.70;47.50
42663;DHT22;44330;51.360;6.686;2023-09-19T05:25:28;14.80;45.00
42663;DHT22;44330;51.360;6.686;2023-09-19T05:27:58;14.80;39.00
42663;DHT22;44330;51.360;6.686;2023-09-19T05:30:27;14.90;40.40
42663;DHT22;44330;51.360;6.686;2023-09-19T05:32:53;14.90;42.00
42663;DHT22;44330;51.360;6.686;2023-09-19T05:35:19;14.90;36.60
42663;DHT22;44330;51.360;6.686;2023-09-19T05:37:47;14.90;40.60
42663;DHT22;44330;51.360;6.686;2023-09-19T05:40:12;14.90;33.50
42663;DHT22;44330;51.360;6.686;2023-09-19T05:42:41;15.00;33.70
42663;DHT22;44330;51.360;6.686;2023-09-19T05:45:09;15.10;30.10
42663;DHT22;44330;51.360;6.686;2023-09-19T05:47:37;15.10;31.90
42663;DHT22;44330;51.360;6.686;2023-09-19T05:50:03;15.10;31.00
42663;DHT22;44330;51.360;6.686;2023-09-19T05:52:30;15.10;32.60
42663;DHT22;44330;51.360;6.686;2023-09-19T05:54:55;15.10;31.10
42663;DHT22;44330;51.360;6.686;2023-09-19T05:57:21;15.10;29.30
42663;DHT22;44330;51.360;6.686;2023-09-19T05:59:47;15.20;28.60
42663;DHT22;44330;51.360;6.686;2023-09-19T06:02:15;15.10;30.40
42663;DHT22;44330;51.360;6.686;2023-09-19T06:04:41;15.20;27.80
42663;DHT22;44330;51.360;6.686;2023-09-19T06:07:06;15.20;25.10
42663;DHT22;44330;51.360;6.686;2023-09-19T06:09:32;15.40;23.00
42663;DHT22;44330;51.360;6.686;2023-09-19T06:11:58;15.30;23.10
42663;DHT22;44330;51.360;6.686;2023-09-19T06:14:24;15.30;20.80
42663;DHT22;44330;51.360;6.686;2023-09-19T06:16:49;15.30;22.50
42663;DHT22;44330;51.360;6.686;2023-09-19T06:19:15;15.30;25.20
42663;DHT22;44330;51.360;6.686;2023-09-19T06:21:40;15.40;24.30
42663;DHT22;44330;51.360;6.686;2023-09-19T06:24:06;15.40;24.40
42663;DHT22;44330;51.360;6.686;2023-09-19T06:26:32;15.40;23.90
42663;DHT22;44330;51.360;6.686;2023-09-19T06:28:57;15.40;23.40
42663;DHT22;44330;51.360;6.686;2023-09-19T06:31:25;15.40;21.90
42663;DHT22;44330;51.360;6.686;2023-09-19T06:33:51;15.50;27.00
42663;DHT22;44330;51.360;6.686;2023-09-19T06:36:17;15.40;25.40
42663;DHT22;44330;51.360;6.686;2023-09-19T06:38:42;15.50;27.10
42663;DHT22;44330;51.360;6.686;2023-09-19T06:41:08;15.50;26.80
42663;DHT22;44330;51.360;6.686;2023-09-19T06:43:34;15.50;25.60
42663;DHT22;44330;51.360;6.686;2023-09-19T06:46:00;15.40;26.80
42663;DHT22;44330;51.360;6.686;2023-09-19T06:48:26;15.50;37.20
42663;DHT22;44330;51.360;6.686;2023-09-19T06:50:55;15.40;31.50
42663;DHT22;44330;51.360;6.686;2023-09-19T06:53:20;15.40;34.00
42663;DHT22;44330;51.360;6.686;2023-09-19T06:55:46;15.60;34.40
42663;DHT22;44330;51.360;6.686;2023-09-19T06:58:13;15.60;30.80
42663;DHT22;44330;51.360;6.686;2023-09-19T07:00:38;15.60;31.80
42663;DHT22;44330;51.360;6.686;2023-09-19T07:03:04;15.70;30.30
42663;DHT22;44330;51.360;6.686;2023-09-19T07:05:36;15.60;32.50
42663;DHT22;44330;51.360;6.686;2023-09-19T07:08:03;15.70;31.50
42663;DHT22;44330;51.360;6.686;2023-09-19T07:10:28;15.70;34.90
42663;DHT22;44330;51.360;6.686;2023-09-19T07:12:55;15.70;27.80
42663;DHT22;44330;51.360;6.686;2023-09-19T07:15:20;15.70;30.00
42663;DHT22;44330;51.360;6.686;2023-09-19T07:17:48;15.80;29.90
42663;DHT22;44330;51.360;6.686;2023-09-19T07:20:14;15.90;29.70
42663;DHT22;44330;51.360;6.686;2023-09-19T07:22:41;15.90;28.00
42663;DHT22;44330;51.360;6.686;2023-09-19T07:25:07;16.00;30.00
42663;DHT22;44330;51.360;6.686;2023-09-19T07:27:33;16.00;28.60
42663;DHT22;44330;51.360;6.686;2023-09-19T07:29:59;16.10;27.70
42663;DHT22;44330;51.360;6.686;2023-09-19T07:32:24;16.10;27.80
42663;DHT22;44330;51.360;6.686;2023-09-19T07:34:50;16.20;24.00
42663;DHT22;44330;51.360;6.686;2023-09-19T07:37:15;16.20;23.40
42663;DHT22;44330;51.360;6.686;2023-09-19T07:39:41;16.40;15.80
42663;DHT22;44330;51.360;6.686;2023-09-19T07:42:07;16.30;14.30
42663;DHT22;44330;51.360;6.686;2023-09-19T07:44:34;16.30;19.60
42663;DHT22;44330;51.360;6.686;2023-09-19T07:47:00;16.50;21.60
42663;DHT22;44330;51.360;6.686;2023-09-19T07:49:26;16.50;9.80
42663;DHT22;44330;51.360;6.686;2023-09-19T07:51:51;16.60;12.50
42663;DHT22;44330;51.360;6.686;2023-09-19T07:54:20;16.50;17.00
42663;DHT22;44330;51.360;6.686;2023-09-19T07:56:48;16.60;10.90
42663;DHT22;44330;51.360;6.686;2023-09-19T07:59:13;16.60;17.20
42663;DHT22;44330;51.360;6.686;2023-09-19T08:01:39;16.70;13.30
42663;DHT22;44330;51.360;6.686;2023-09-19T08:04:07;16.80;10.70
42663;DHT22;44330;51.360;6.686;2023-09-19T08:06:32;16.90;9.60
42663;DHT22;44330;51.360;6.686;2023-09-19T08:08:58;16.90;10.60
42663;DHT22;44330;51.360;6.686;2023-09-19T08:11:23;17.00;6.80
42663;DHT22;44330;51.360;6.686;2023-09-19T08:13:49;17.10;1.00
42663;DHT22;44330;51.360;6.686;2023-09-19T08:16:15;17.20;2.80
42663;DHT22;44330;51.360;6.686;2023-09-19T08:18:48;17.30;1.00
42663;DHT22;44330;51.360;6.686;2023-09-19T08:21:14;17.40;1.00
42663;DHT22;44330;51.360;6.686;2023-09-19T08:23:42;17.40;1.00
42663;DHT22;44330;51.360;6.686;2023-09-19T08:26:29;17.40;1.00
42663;DHT22;44330;51.360;6.686;2023-09-19T08:31:57;17.60;1.00
42663;DHT22;44330;51.360;6.686;2023-09-19T08:34:23;17.70;1.00
42663;DHT22;44330;51.360;6.686;2023-09-19T08:36:52;17.80;1.00
42663;DHT22;44330;51.360;6.686;2023-09-19T08:39:22;18.00;1.00
42663;DHT22;44330;51.360;6.686;2023-09-19T08:44:58;18.20;1.00
42663;DHT22;44330;51.360;6.686;2023-09-19T08:47:34;18.30;1.00
42663;DHT22;44330;51.360;6.686;2023-09-19T08:50:19;18.40;1.00
42663;DHT22;44330;51.360;6.686;2023-09-19T08:52:46;18.50;1.00
42663;DHT22;44330;51.360;6.686;2023-09-19T08:55:12;18.60;99.90
42663;DHT22;44330;51.360;6.686;2023-09-19T08:57:46;18.50;99.90
42663;DHT22;44330;51.360;6.686;2023-09-19T09:00:14;18.50;1.00
42663;DHT22;44330;51.360;6.686;2023-09-19T09:06:13;18.60;99.90
42663;DHT22;44330;51.360;6.686;2023-09-19T09:08:47;18.80;99.90
42663;DHT22;44330;51.360;6.686;2023-09-19T09:11:13;18.90;99.90
42663;DHT22;44330;51.360;6.686;2023-09-19T09:13:39;19.00;99.90
42663;DHT22;44330;51.360;6.686;2023-09-19T09:16:09;19.00;99.90
42663;DHT22;44330;51.360;6.686;2023-09-19T09:18:37;19.10;99.90
42663;DHT22;44330;51.360;6.686;2023-09-19T09:21:03;19.00;99.90
42663;DHT22;44330;51.360;6.686;2023-09-19T09:23:41;18.90;99.90
42663;DHT22;44330;51.360;6.686;2023-09-19T09:26:06;18.90;99.90
42663;DHT22;44330;51.360;6.686;2023-09-19T09:28:44;19.00;99.90
42663;DHT22;44330;51.360;6.686;2023-09-19T09:31:24;19.00;99.90
42663;DHT22;44330;51.360;6.686;2023-09-19T09:34:02;19.00;99.90
42663;DHT22;44330;51.360;6.686;2023-09-19T09:36:34;19.10;99.90
42663;DHT22;44330;51.360;6.686;2023-09-19T09:39:02;19.10;99.90
42663;DHT22;44330;51.360;6.686;2023-09-19T09:41:41;19.10;99.90
42663;DHT22;44330;51.360;6.686;2023-09-19T09:44:16;19.20;99.90
42663;DHT22;44330;51.360;6.686;2023-09-19T09:46:47;19.30;99.90
42663;DHT22;44330;51.360;6.686;2023-09-19T09:49:22;19.20;99.90
42663;DHT22;44330;51.360;6.686;2023-09-19T09:52:03;19.00;99.90
42663;DHT22;44330;51.360;6.686;2023-09-19T09:55:02;18.90;99.90
42663;DHT22;44330;51.360;6.686;2023-09-19T09:57:31;18.90;99.90
42663;DHT22;44330;51.360;6.686;2023-09-19T09:59:57;19.10;99.90
42663;DHT22;44330;51.360;6.686;2023-09-19T10:02:44;19.30;99.90
42663;DHT22;44330;51.360;6.686;2023-09-19T10:07:47;19.70;99.90
42663;DHT22;44330;51.360;6.686;2023-09-19T10:10:37;19.80;1.00
42663;DHT22;44330;51.360;6.686;2023-09-19T10:13:08;19.90;99.90
42663;DHT22;44330;51.360;6.686;2023-09-19T10:15:37;20.00;38.60
42663;DHT22;44330;51.360;6.686;2023-09-19T10:18:06;20.00;99.90
42663;DHT22;44330;51.360;6.686;2023-09-19T10:20:36;19.90;68.70
42663;DHT22;44330;51.360;6.686;2023-09-19T10:23:07;19.80;1.00
42663;DHT22;44330;51.360;6.686;2023-09-19T10:25:37;19.90;12.50
42663;DHT22;44330;51.360;6.686;2023-09-19T10:28:05;20.00;99.90
42663;DHT22;44330;51.360;6.686;2023-09-19T10:30:32;20.10;15.30
42663;DHT22;44330;51.360;6.686;2023-09-19T10:33:00;20.30;99.90
42663;DHT22;44330;51.360;6.686;2023-09-19T10:35:26;20.40;1.00
42663;DHT22;44330;51.360;6.686;2023-09-19T10:37:54;20.80;1.00
42663;DHT22;44330;51.360;6.686;2023-09-19T10:40:19;21.00;1.00
42663;DHT22;44330;51.360;6.686;2023-09-19T10:42:46;21.10;99.90
42663;DHT22;44330;51.360;6.686;2023-09-19T10:45:13;21.30;99.90
42663;DHT22;44330;51.360;6.686;2023-09-19T10:47:41;21.30;21.40
42663;DHT22;44330;51.360;6.686;2023-09-19T10:50:06;21.20;99.90
42663;DHT22;44330;51.360;6.686;2023-09-19T10:52:39;21.10;1.00
42663;DHT22;44330;51.360;6.686;2023-09-19T10:55:08;21.20;99.90
42663;DHT22;44330;51.360;6.686;2023-09-19T10:57:57;21.30;99.90
42663;DHT22;44330;51.360;6.686;2023-09-19T11:00:56;21.40;99.90
42663;DHT22;44330;51.360;6.686;2023-09-19T11:03:22;21.20;99.90
42663;DHT22;44330;51.360;6.686;2023-09-19T11:06:10;21.20;99.90
42663;DHT22;44330;51.360;6.686;2023-09-19T11:09:06;21.20;1.00
42663;DHT22;44330;51.360;6.686;2023-09-19T11:30:47;21.10;99.90
42663;DHT22;44330;51.360;6.686;2023-09-19T11:36:19;21.00;99.90
42663;DHT22;44330;51.360;6.686;2023-09-19T11:39:01;21.10;99.90
42663;DHT22;44330;51.360;6.686;2023-09-19T11:41:37;20.90;99.90
42663;DHT22;44330;51.360;6.686;2023-09-19T11:49:16;20.90;99.90
42663;DHT22;44330;51.360;6.686;2023-09-19T11:51:46;21.30;1.00
42663;DHT22;44330;51.360;6.686;2023-09-19T11:54:13;21.70;99.90
42663;DHT22;44330;51.360;6.686;2023-09-19T11:56:51;21.70;1.00
42663;DHT22;44330;51.360;6.686;2023-09-19T11:59:23;21.80;1.00
42663;DHT22;44330;51.360;6.686;2023-09-19T12:02:04;21.80;5.70
42663;DHT22;44330;51.360;6.686;2023-09-19T12:04:40;21.90;1.00
42663;DHT22;44330;51.360;6.686;2023-09-19T12:07:17;21.80;97.90
42663;DHT22;44330;51.360;6.686;2023-09-19T12:09:48;21.90;99.90
42663;DHT22;44330;51.360;6.686;2023-09-19T12:12:24;21.70;99.90
42663;DHT22;44330;51.360;6.686;2023-09-19T12:14:53;21.70;99.90
42663;DHT22;44330;51.360;6.686;2023-09-19T12:17:19;21.90;1.00
42663;DHT22;44330;51.360;6.686;2023-09-19T12:19:55;22.00;99.90
42663;DHT22;44330;51.360;6.686;2023-09-19T12:22:21;22.10;99.90
42663;DHT22;44330;51.360;6.686;2023-09-19T12:24:49;22.10;99.90
42663;DHT22;44330;51.360;6.686;2023-09-19T12:27:16;22.10;99.90
42663;DHT22;44330;51.360;6.686;2023-09-19T12:29:42;22.00;94.80
42663;DHT22;44330;51.360;6.686;2023-09-19T12:32:15;22.10;27.80
42663;DHT22;44330;51.360;6.686;2023-09-19T12:34:52;22.10;16.60
42663;DHT22;44330;51.360;6.686;2023-09-19T12:37:19;22.10;76.40
42663;DHT22;44330;51.360;6.686;2023-09-19T12:39:49;22.00;1.00
42663;DHT22;44330;51.360;6.686;2023-09-19T12:42:20;22.10;71.40
42663;DHT22;44330;51.360;6.686;2023-09-19T12:44:50;22.30;13.20
42663;DHT22;44330;51.360;6.686;2023-09-19T12:47:40;22.50;19.60
42663;DHT22;44330;51.360;6.686;2023-09-19T12:50:17;22.50;1.00
42663;DHT22;44330;51.360;6.686;2023-09-19T12:52:55;22.30;1.00
42663;DHT22;44330;51.360;6.686;2023-09-19T12:58:24;22.30;66.60
42663;DHT22;44330;51.360;6.686;2023-09-19T13:00:50;22.30;99.90
42663;DHT22;44330;51.360;6.686;2023-09-19T13:03:18;22.30;99.90
42663;DHT22;44330;51.360;6.686;2023-09-19T13:06:01;22.30;99.90
42663;DHT22;44330;51.360;6.686;2023-09-19T13:14:44;22.00;58.30
42663;DHT22;44330;51.360;6.686;2023-09-19T13:17:16;22.00;99.90
42663;DHT22;44330;51.360;6.686;2023-09-19T13:23:03;22.20;67.30
42663;DHT22;44330;51.360;6.686;2023-09-19T13:25:35;22.10;99.90
42663;DHT22;44330;51.360;6.686;2023-09-19T13:28:09;22.30;99.90
42663;DHT22;44330;51.360;6.686;2023-09-19T13:30:36;22.30;99.90
42663;DHT22;44330;51.360;6.686;2023-09-19T13:33:08;22.30;99.90
42663;DHT22;44330;51.360;6.686;2023-09-19T13:35:38;22.10;94.00
42663;DHT22;44330;51.360;6.686;2023-09-19T13:38:22;21.80;99.90
42663;DHT22;44330;51.360;6.686;2023-09-19T13:40:48;21.60;99.90
42663;DHT22;44330;51.360;6.686;2023-09-19T13:43:13;21.50;1.00
42663;DHT22;44330;51.360;6.686;2023-09-19T13:45:39;21.30;99.90
42663;DHT22;44330;51.360;6.686;2023-09-19T13:48:07;21.20;1.00
42663;DHT22;44330;51.360;6.686;2023-09-19T13:50:36;21.00;99.90
42663;DHT22;44330;51.360;6.686;2023-09-19T13:53:09;21.00;1.00
42663;DHT22;44330;51.360;6.686;2023-09-19T13:55:35;20.90;99.90
42663;DHT22;44330;51.360;6.686;2023-09-19T13:58:03;20.90;1.00
42663;DHT22;44330;51.360;6.686;2023-09-19T14:00:31;20.90;1.00
42663;DHT22;44330;51.360;6.686;2023-09-19T14:03:00;20.80;99.90
42663;DHT22;44330;51.360;6.686;2023-09-19T14:05:26;20.80;99.90
42663;DHT22;44330;51.360;6.686;2023-09-19T14:07:53;20.80;99.90
42663;DHT22;44330;51.360;6.686;2023-09-19T14:10:21;20.80;99.90
42663;DHT22;44330;51.360;6.686;2023-09-19T14:12:47;20.70;1.00
42663;DHT22;44330;51.360;6.686;2023-09-19T14:15:13;20.60;51.90
42663;DHT22;44330;51.360;6.686;2023-09-19T14:17:39;20.60;99.90
42663;DHT22;44330;51.360;6.686;2023-09-19T14:20:07;20.60;99.90
42663;DHT22;44330;51.360;6.686;2023-09-19T14:22:37;20.60;99.90
42663;DHT22;44330;51.360;6.686;2023-09-19T14:25:04;20.60;78.40
42663;DHT22;44330;51.360;6.686;2023-09-19T14:27:29;20.70;99.90
42663;DHT22;44330;51.360;6.686;2023-09-19T14:29:55;20.80;99.90
42663;DHT22;44330;51.360;6.686;2023-09-19T14:32:22;20.70;44.80
42663;DHT22;44330;51.360;6.686;2023-09-19T14:34:48;20.60;99.90
42663;DHT22;44330;51.360;6.686;2023-09-19T14:37:14;20.50;99.90
42663;DHT22;44330;51.360;6.686;2023-09-19T14:39:42;20.40;8.60
42663;DHT22;44330;51.360;6.686;2023-09-19T14:42:11;20.40;1.00
42663;DHT22;44330;51.360;6.686;2023-09-19T14:44:44;20.40;8.50
42663;DHT22;44330;51.360;6.686;2023-09-19T14:47:10;20.30;99.90
42663;DHT22;44330;51.360;6.686;2023-09-19T14:49:38;20.30;1.00
42663;DHT22;44330;51.360;6.686;2023-09-19T14:52:07;20.30;99.90
42663;DHT22;44330;51.360;6.686;2023-09-19T14:54:36;20.30;1.00
42663;DHT22;44330;51.360;6.686;2023-09-19T14:57:14;20.30;77.40
42663;DHT22;44330;51.360;6.686;2023-09-19T14:59:40;20.30;99.90
42663;DHT22;44330;51.360;6.686;2023-09-19T15:02:05;20.50;99.90
42663;DHT22;44330;51.360;6.686;2023-09-19T15:04:32;20.50;99.90
42663;DHT22;44330;51.360;6.686;2023-09-19T15:06:59;20.60;99.90
42663;DHT22;44330;51.360;6.686;2023-09-19T15:09:25;20.40;99.90
42663;DHT22;44330;51.360;6.686;2023-09-19T15:11:54;20.40;99.90
42663;DHT22;44330;51.360;6.686;2023-09-19T15:14:20;20.40;31.90
42663;DHT22;44330;51.360;6.686;2023-09-19T15:16:46;20.40;99.90
42663;DHT22;44330;51.360;6.686;2023-09-19T15:19:12;20.40;99.90
42663;DHT22;44330;51.360;6.686;2023-09-19T15:21:37;20.30;99.90
42663;DHT22;44330;51.360;6.686;2023-09-19T15:24:03;20.40;86.30
42663;DHT22;44330;51.360;6.686;2023-09-19T15:26:30;20.40;22.60
42663;DHT22;44330;51.360;6.686;2023-09-19T15:28:55;20.50;99.90
42663;DHT22;44330;51.360;6.686;2023-09-19T15:31:21;20.50;1.00
42663;DHT22;44330;51.360;6.686;2023-09-19T15:33:47;20.50;99.90
42663;DHT22;44330;51.360;6.686;2023-09-19T15:36:13;20.50;99.90
42663;DHT22;44330;51.360;6.686;2023-09-19T15:41:27;20.60;99.90
42663;DHT22;44330;51.360;6.686;2023-09-19T15:43:53;20.60;99.90
42663;DHT22;44330;51.360;6.686;2023-09-19T15:46:19;20.60;99.90
42663;DHT22;44330;51.360;6.686;2023-09-19T15:48:45;20.60;99.90
42663;DHT22;44330;51.360;6.686;2023-09-19T15:51:11;20.70;99.90
42663;DHT22;44330;51.360;6.686;2023-09-19T15:53:46;20.60;99.90
42663;DHT22;44330;51.360;6.686;2023-09-19T15:56:14;20.50;99.90
42663;DHT22;44330;51.360;6.686;2023-09-19T15:58:40;20.50;1.00
42663;DHT22;44330;51.360;6.686;2023-09-19T16:01:06;20.40;99.90
42663;DHT22;44330;51.360;6.686;2023-09-19T16:03:37;20.30;99.90
42663;DHT22;44330;51.360;6.686;2023-09-19T16:06:09;20.20;99.90
42663;DHT22;44330;51.360;6.686;2023-09-19T16:08:47;20.20;1.00
42663;DHT22;44330;51.360;6.686;2023-09-19T16:11:23;20.20;99.90
42663;DHT22;44330;51.360;6.686;2023-09-19T16:13:49;20.10;99.90
42663;DHT22;44330;51.360;6.686;2023-09-19T16:16:16;20.20;99.90
42663;DHT22;44330;51.360;6.686;2023-09-19T16:18:45;20.20;99.90
42663;DHT22;44330;51.360;6.686;2023-09-19T16:21:10;20.30;99.90
42663;DHT22;44330;51.360;6.686;2023-09-19T16:23:36;20.20;28.60
42663;DHT22;44330;51.360;6.686;2023-09-19T16:26:04;20.30;99.90
42663;DHT22;44330;51.360;6.686;2023-09-19T16:28:34;20.30;1.00
42663;DHT22;44330;51.360;6.686;2023-09-19T16:31:02;20.30;97.90
42663;DHT22;44330;51.360;6.686;2023-09-19T16:33:28;20.30;99.90
42663;DHT22;44330;51.360;6.686;2023-09-19T16:35:53;20.20;99.90
42663;DHT22;44330;51.360;6.686;2023-09-19T16:38:19;20.30;29.70
42663;DHT22;44330;51.360;6.686;2023-09-19T16:40:51;20.40;99.90
42663;DHT22;44330;51.360;6.686;2023-09-19T16:43:17;20.40;62.70
42663;DHT22;44330;51.360;6.686;2023-09-19T16:45:51;20.30;1.00
42663;DHT22;44330;51.360;6.686;2023-09-19T16:48:17;20.30;99.90